createdAt,value
2019-01-29T00:00:35.844Z,0.60
2019-01-29T00:03:05.958Z,0.67
2019-01-29T00:05:34.326Z,0.60
2019-01-29T00:08:02.773Z,0.68
2019-01-29T00:10:31.147Z,0.74
2019-01-29T00:12:59.521Z,0.43
2019-01-29T00:15:27.896Z,0.48
2019-01-29T00:17:56.283Z,0.50
2019-01-29T00:20:24.650Z,0.54
2019-01-29T00:22:53.025Z,0.58
2019-01-29T00:25:21.400Z,0.63
2019-01-29T00:27:49.781Z,0.74
2019-01-29T00:30:18.484Z,1.00
2019-01-29T00:32:46.901Z,1.00
2019-01-29T00:35:15.301Z,0.98
2019-01-29T00:37:43.678Z,1.17
2019-01-29T00:40:14.280Z,1.01
2019-01-29T00:42:42.666Z,1.11
2019-01-29T00:45:16.057Z,1.08
2019-01-29T00:47:44.433Z,1.02
2019-01-29T00:50:15.042Z,1.04
2019-01-29T00:52:43.759Z,1.08
2019-01-29T00:55:14.471Z,0.96
2019-01-29T00:57:43.016Z,0.86
2019-01-29T01:00:20.004Z,1.11
2019-01-29T01:02:48.381Z,0.99
2019-01-29T01:05:17.190Z,1.00
2019-01-29T01:07:45.738Z,1.19
2019-01-29T01:10:16.641Z,1.06
2019-01-29T01:12:45.195Z,1.08
2019-01-29T01:15:14.402Z,1.21
2019-01-29T01:17:42.849Z,1.22
2019-01-29T01:20:14.003Z,1.16
2019-01-29T01:22:50.381Z,1.39
2019-01-29T01:25:13.751Z,1.47
2019-01-29T01:27:42.125Z,1.45
2019-01-29T01:30:50.416Z,1.43
2019-01-29T01:33:18.795Z,1.41
2019-01-29T01:36:06.345Z,1.33
2019-01-29T01:38:34.721Z,1.32
2019-01-29T01:41:03.104Z,1.39
2019-01-29T01:43:50.829Z,1.34
2019-01-29T01:49:06.647Z,1.19
2019-01-29T01:51:35.021Z,1.30
2019-01-29T01:54:22.695Z,1.39
2019-01-29T01:57:10.185Z,1.51
2019-01-29T01:59:57.923Z,1.47
2019-01-29T02:02:26.302Z,1.56
2019-01-29T02:05:13.802Z,1.71
2019-01-29T02:07:42.163Z,1.50
2019-01-29T02:10:50.450Z,1.41
2019-01-29T02:13:38.077Z,1.39
2019-01-29T02:18:53.889Z,1.32
2019-01-29T02:22:02.176Z,1.42
2019-01-29T02:24:49.676Z,1.28
2019-01-29T02:27:37.166Z,1.20
2019-01-29T02:30:24.976Z,1.33
2019-01-29T02:32:53.333Z,1.53
2019-01-29T02:38:16.066Z,1.28
2019-01-29T02:40:44.445Z,1.20
2019-01-29T02:43:12.815Z,1.34
2019-01-29T02:46:00.437Z,1.29
2019-01-29T02:48:48.057Z,1.10
2019-01-29T02:51:35.549Z,1.19
2019-01-29T02:56:58.973Z,1.14
2019-01-29T02:59:27.354Z,1.36
2019-01-29T03:04:24.408Z,1.47
2019-01-29T03:06:52.770Z,1.38
2019-01-29T03:09:21.150Z,1.52
2019-01-29T03:11:49.519Z,1.56
2019-01-29T03:14:17.881Z,1.54
2019-01-29T03:16:46.259Z,1.35
2019-01-29T03:19:14.619Z,1.42
2019-01-29T03:21:44.298Z,1.32
2019-01-29T03:24:12.646Z,1.25
2019-01-29T03:26:41.025Z,1.30
2019-01-29T03:29:09.736Z,1.37
2019-01-29T03:31:38.126Z,1.42
2019-01-29T03:34:06.479Z,1.32
2019-01-29T03:36:34.919Z,1.20
2019-01-29T03:39:04.461Z,1.23
2019-01-29T03:41:32.840Z,1.19
2019-01-29T03:44:01.210Z,0.85
2019-01-29T03:46:29.590Z,0.70
2019-01-29T03:48:57.975Z,0.68
2019-01-29T03:51:26.341Z,0.72
2019-01-29T03:53:54.702Z,0.86
2019-01-29T03:56:23.083Z,0.83
2019-01-29T03:58:51.449Z,0.86
2019-01-29T04:01:19.830Z,0.79
2019-01-29T04:03:48.206Z,0.74
2019-01-29T04:06:16.590Z,0.91
2019-01-29T04:08:44.958Z,0.91
2019-01-29T04:11:13.338Z,0.92
2019-01-29T04:13:41.737Z,0.89
2019-01-29T04:16:10.185Z,0.79
2019-01-29T04:18:38.562Z,0.83
2019-01-29T04:21:06.940Z,0.98
2019-01-29T04:23:35.305Z,0.90
2019-01-29T04:26:03.687Z,0.61
2019-01-29T04:28:32.052Z,0.84
2019-01-29T04:31:00.438Z,1.00
2019-01-29T04:33:28.816Z,1.02
2019-01-29T04:35:57.192Z,1.09
2019-01-29T04:38:25.579Z,1.26
2019-01-29T04:40:53.963Z,1.34
2019-01-29T04:43:22.435Z,1.38
2019-01-29T04:45:50.824Z,1.37
2019-01-29T04:48:19.197Z,1.43
2019-01-29T04:50:47.595Z,1.35
2019-01-29T04:53:15.967Z,1.37
2019-01-29T04:55:44.429Z,1.33
2019-01-29T04:58:12.828Z,1.46
2019-01-29T05:00:41.186Z,1.46
2019-01-29T05:03:09.563Z,1.36
2019-01-29T05:05:37.933Z,1.29
2019-01-29T05:08:06.314Z,1.26
2019-01-29T05:10:34.671Z,1.27
2019-01-29T05:13:03.055Z,1.21
2019-01-29T05:15:31.427Z,1.10
2019-01-29T05:17:59.805Z,0.92
2019-01-29T05:20:28.185Z,0.95
2019-01-29T05:22:56.557Z,1.03
2019-01-29T05:25:24.930Z,1.10
2019-01-29T05:27:53.301Z,1.17
2019-01-29T05:30:23.623Z,1.13
2019-01-29T05:32:52.009Z,1.06
2019-01-29T05:35:20.559Z,1.26
2019-01-29T05:37:48.938Z,1.14
2019-01-29T05:40:19.646Z,1.17
2019-01-29T05:42:48.058Z,0.93
2019-01-29T05:45:18.133Z,1.10
2019-01-29T05:47:46.581Z,1.26
2019-01-29T05:50:15.889Z,1.36
2019-01-29T05:52:44.441Z,1.46
2019-01-29T05:55:14.485Z,1.67
2019-01-29T05:57:43.022Z,1.75
2019-01-29T06:00:20.550Z,1.69
2019-01-29T06:02:49.205Z,1.54
2019-01-29T06:05:17.953Z,1.56
2019-01-29T06:07:46.335Z,1.64
2019-01-29T06:10:16.448Z,1.80
2019-01-29T06:12:45.918Z,1.89
2019-01-29T06:15:16.962Z,1.90
2019-01-29T06:17:45.356Z,1.98
2019-01-29T06:20:18.364Z,1.87
2019-01-29T06:22:46.254Z,2.03
2019-01-29T06:25:15.263Z,2.13
2019-01-29T06:27:43.719Z,2.14
2019-01-29T06:30:15.153Z,2.22
2019-01-29T06:32:43.519Z,2.14
2019-01-29T06:35:14.337Z,2.14
2019-01-29T06:37:42.714Z,2.06
2019-01-29T06:40:14.089Z,2.12
2019-01-29T06:42:42.468Z,2.15
2019-01-29T06:45:13.486Z,2.30
2019-01-29T06:47:42.031Z,2.40
2019-01-29T06:50:15.991Z,2.48
2019-01-29T06:52:44.631Z,2.33
2019-01-29T06:55:15.753Z,2.30
2019-01-29T06:57:44.118Z,2.38
2019-01-29T07:00:15.601Z,2.28
2019-01-29T07:02:44.101Z,2.29
2019-01-29T07:05:12.851Z,2.18
2019-01-29T07:07:41.221Z,2.15
2019-01-29T07:10:12.709Z,1.86
2019-01-29T07:12:41.160Z,1.83
2019-01-29T07:15:17.325Z,1.79
2019-01-29T07:17:47.072Z,1.71
2019-01-29T07:20:15.628Z,1.71
2019-01-29T07:22:43.994Z,1.90
2019-01-29T07:25:12.713Z,1.83
2019-01-29T07:27:41.083Z,1.84
2019-01-29T07:30:12.762Z,1.61
2019-01-29T07:32:41.129Z,1.69
2019-01-29T07:35:09.580Z,1.46
2019-01-29T07:37:37.948Z,1.64
2019-01-29T07:40:09.189Z,1.71
2019-01-29T07:42:37.808Z,1.81
2019-01-29T07:45:09.237Z,1.87
2019-01-29T07:47:37.885Z,2.01
2019-01-29T07:50:08.904Z,2.14
2019-01-29T07:52:37.271Z,2.19
2019-01-29T07:55:08.228Z,2.31
2019-01-29T07:57:36.592Z,2.21
2019-01-29T08:00:16.486Z,2.16
2019-01-29T08:02:44.923Z,2.21
2019-01-29T08:05:13.362Z,2.19
2019-01-29T08:07:41.729Z,2.28
2019-01-29T08:10:15.145Z,2.30
2019-01-29T08:12:43.515Z,2.32
2019-01-29T08:15:20.089Z,2.18
2019-01-29T08:17:48.455Z,2.01
2019-01-29T08:20:18.272Z,2.12
2019-01-29T08:22:46.634Z,2.41
2019-01-29T08:25:15.258Z,2.53
2019-01-29T08:27:43.715Z,2.41
2019-01-29T08:30:19.463Z,2.47
2019-01-29T08:32:47.831Z,2.46
2019-01-29T08:35:17.649Z,2.66
2019-01-29T08:37:46.032Z,2.77
2019-01-29T08:40:15.838Z,2.87
2019-01-29T08:42:44.200Z,2.91
2019-01-29T08:45:17.191Z,2.82
2019-01-29T08:47:45.730Z,2.82
2019-01-29T08:50:17.318Z,2.87
2019-01-29T08:52:45.685Z,2.97
2019-01-29T08:55:14.128Z,2.84
2019-01-29T08:57:42.509Z,2.96
2019-01-29T09:00:14.166Z,3.03
2019-01-29T09:02:42.531Z,3.06
2019-01-29T09:05:50.816Z,2.91
2019-01-29T09:08:19.187Z,2.92
2019-01-29T09:10:47.576Z,2.92
2019-01-29T09:13:16.008Z,3.01
2019-01-29T09:16:03.506Z,3.14
2019-01-29T09:18:31.881Z,3.10
2019-01-29T09:21:40.171Z,3.19
2019-01-29T09:24:08.541Z,3.25
2019-01-29T09:26:36.919Z,3.21
2019-01-29T09:29:06.830Z,3.21
2019-01-29T09:31:35.216Z,3.18
2019-01-29T09:34:03.589Z,3.32
2019-01-29T09:36:33.924Z,3.09
2019-01-29T09:39:02.066Z,3.09
2019-01-29T09:41:30.436Z,3.13
2019-01-29T09:43:58.807Z,3.17
2019-01-29T09:46:27.185Z,3.13
2019-01-29T09:48:55.553Z,3.03
2019-01-29T09:51:23.928Z,2.94
2019-01-29T09:53:52.362Z,2.87
2019-01-29T09:56:20.682Z,3.06
2019-01-29T09:58:49.058Z,3.20
2019-01-29T10:01:17.443Z,3.26
2019-01-29T10:03:45.805Z,3.22
2019-01-29T10:06:14.182Z,3.67
2019-01-29T10:08:42.550Z,4.32
2019-01-29T10:11:10.931Z,4.95
2019-01-29T10:13:39.304Z,5.25
2019-01-29T10:16:07.694Z,5.53
2019-01-29T10:18:36.059Z,5.64
2019-01-29T10:21:05.262Z,6.13
2019-01-29T10:23:33.633Z,6.97
2019-01-29T10:26:01.996Z,7.70
2019-01-29T10:28:30.370Z,7.94
2019-01-29T10:30:58.763Z,8.49
2019-01-29T10:33:27.146Z,9.00
2019-01-29T10:35:55.809Z,9.19
2019-01-29T10:38:24.185Z,8.61
2019-01-29T10:40:52.555Z,8.06
2019-01-29T10:43:20.939Z,7.67
2019-01-29T10:45:49.309Z,7.42
2019-01-29T10:48:17.695Z,7.24
2019-01-29T10:50:46.247Z,6.82
2019-01-29T10:53:14.611Z,6.50
2019-01-29T10:55:47.362Z,5.88
2019-01-29T10:58:13.163Z,5.82
2019-01-29T11:00:41.529Z,5.84
2019-01-29T11:03:10.546Z,5.48
2019-01-29T11:05:39.140Z,5.50
2019-01-29T11:08:07.760Z,5.37
2019-01-29T11:10:36.129Z,5.07
2019-01-29T11:13:07.332Z,5.11
2019-01-29T11:15:40.883Z,4.79
2019-01-29T11:18:11.897Z,5.04
2019-01-29T11:20:41.290Z,4.98
2019-01-29T11:23:09.669Z,4.65
2019-01-29T11:25:38.114Z,5.15
2019-01-29T11:28:06.494Z,5.34
2019-01-29T11:30:35.514Z,5.33
2019-01-29T11:33:04.346Z,5.38
2019-01-29T11:35:32.787Z,5.38
2019-01-29T11:38:01.164Z,5.34
2019-01-29T11:40:31.946Z,5.25
2019-01-29T11:43:00.695Z,5.14
2019-01-29T11:45:31.478Z,5.02
2019-01-29T11:47:59.874Z,4.99
2019-01-29T11:50:28.254Z,5.12
2019-01-29T11:52:56.678Z,5.05
2019-01-29T11:57:52.374Z,4.96
2019-01-29T12:00:25.130Z,4.91
2019-01-29T12:02:53.769Z,4.63
2019-01-29T12:05:22.132Z,4.45
2019-01-29T12:07:50.496Z,4.47
2019-01-29T12:10:18.890Z,4.37
2019-01-29T12:12:47.445Z,4.25
2019-01-29T12:15:20.324Z,4.55
2019-01-29T12:17:48.690Z,4.57
2019-01-29T12:20:18.604Z,4.56
2019-01-29T12:22:47.140Z,4.55
2019-01-29T12:25:15.764Z,4.50
2019-01-29T12:27:44.132Z,4.67
2019-01-29T12:30:24.570Z,4.94
2019-01-29T12:32:53.187Z,4.86
2019-01-29T12:35:21.570Z,5.07
2019-01-29T12:37:49.945Z,5.30
2019-01-29T12:40:18.391Z,5.40
2019-01-29T12:42:46.765Z,5.10
2019-01-29T12:45:17.497Z,5.01
2019-01-29T12:47:46.010Z,4.99
2019-01-29T12:50:31.682Z,5.16
2019-01-29T12:53:10.483Z,5.27
2019-01-29T12:55:38.935Z,5.62
2019-01-29T12:58:07.944Z,5.79
2019-01-29T13:00:38.034Z,5.72
2019-01-29T13:03:06.579Z,5.43
2019-01-29T13:05:34.957Z,5.35
2019-01-29T13:08:03.518Z,5.21
2019-01-29T13:10:31.917Z,5.26
2019-01-29T13:13:00.381Z,5.35
2019-01-29T13:15:33.121Z,5.15
2019-01-29T13:18:02.029Z,5.37
2019-01-29T13:20:30.849Z,5.12
2019-01-29T13:22:59.218Z,4.91
2019-01-29T13:25:27.612Z,4.89
2019-01-29T13:27:55.982Z,4.94
2019-01-29T13:30:32.722Z,5.00
2019-01-29T13:33:01.271Z,4.91
2019-01-29T13:35:32.028Z,4.72
2019-01-29T13:38:00.403Z,4.84
2019-01-29T13:40:29.123Z,4.86
2019-01-29T13:42:57.498Z,4.83
2019-01-29T13:45:26.133Z,4.76
2019-01-29T13:47:54.456Z,4.65
2019-01-29T13:50:34.148Z,4.71
2019-01-29T13:53:02.513Z,4.51
2019-01-29T13:55:30.898Z,4.55
2019-01-29T13:57:59.378Z,4.57
2019-01-29T14:00:32.911Z,4.70
2019-01-29T14:03:01.920Z,4.86
2019-01-29T14:05:30.616Z,4.98
2019-01-29T14:07:58.983Z,5.25
2019-01-29T14:10:27.605Z,5.36
2019-01-29T14:12:57.018Z,5.31
2019-01-29T14:15:33.884Z,5.02
2019-01-29T14:18:02.425Z,5.03
2019-01-29T14:20:30.804Z,4.99
2019-01-29T14:22:59.177Z,4.77
2019-01-29T14:25:27.728Z,4.80
2019-01-29T14:27:56.098Z,4.77
2019-01-29T14:30:28.866Z,4.80
2019-01-29T14:32:57.406Z,4.91
2019-01-29T14:35:25.853Z,4.94
2019-01-29T14:38:12.534Z,5.02
2019-01-29T14:40:40.921Z,5.16
2019-01-29T14:43:14.959Z,4.98
2019-01-29T14:45:43.354Z,4.75
2019-01-29T14:48:11.719Z,4.89
2019-01-29T14:50:40.104Z,4.91
2019-01-29T14:53:08.472Z,4.83
2019-01-29T14:55:36.860Z,4.57
2019-01-29T14:58:05.906Z,4.52
2019-01-29T15:00:37.574Z,4.41
2019-01-29T15:03:06.048Z,4.06
2019-01-29T15:05:34.522Z,4.25
2019-01-29T15:08:02.888Z,4.09
2019-01-29T15:10:32.202Z,4.18
2019-01-29T15:13:00.859Z,4.26
2019-01-29T15:15:31.741Z,4.37
2019-01-29T15:18:01.762Z,4.19
2019-01-29T15:20:30.134Z,4.25
2019-01-29T15:22:58.585Z,4.20
2019-01-29T15:25:26.962Z,4.20
2019-01-29T15:28:14.687Z,4.12
2019-01-29T15:31:22.993Z,3.90
2019-01-29T15:33:51.373Z,4.02
2019-01-29T15:36:19.759Z,3.69
2019-01-29T15:38:48.137Z,3.57
2019-01-29T15:41:16.526Z,3.72
2019-01-29T15:44:04.019Z,3.90
2019-01-29T15:46:32.409Z,3.83
2019-01-29T15:49:00.788Z,3.62
2019-01-29T15:51:29.178Z,3.81
2019-01-29T15:53:57.548Z,3.69
2019-01-29T15:56:26.403Z,3.79
2019-01-29T15:58:56.023Z,3.72
2019-01-29T16:01:43.660Z,3.73
2019-01-29T16:04:31.344Z,3.57
2019-01-29T16:09:53.385Z,3.64
2019-01-29T16:12:41.014Z,3.61
2019-01-29T16:15:28.999Z,3.73
2019-01-29T16:18:16.500Z,3.67
2019-01-29T16:21:04.126Z,3.54
2019-01-29T16:23:51.628Z,3.64
2019-01-29T16:26:20.014Z,3.61
2019-01-29T16:29:07.502Z,3.54
2019-01-29T16:31:35.895Z,3.50
2019-01-29T16:37:12.341Z,3.30
2019-01-29T16:39:59.963Z,3.26
2019-01-29T16:45:02.168Z,3.11
2019-01-29T16:47:30.559Z,2.97
2019-01-29T16:49:58.931Z,2.93
2019-01-29T16:52:27.337Z,3.00
2019-01-29T16:55:14.962Z,2.74
2019-01-29T16:57:43.349Z,2.67
2019-01-29T17:00:51.642Z,2.68
2019-01-29T17:03:20.030Z,2.64
2019-01-29T17:06:07.524Z,2.54
2019-01-29T17:08:35.913Z,2.47
2019-01-29T17:16:46.382Z,2.36
2019-01-29T17:19:14.771Z,2.35
2019-01-29T17:22:02.396Z,2.20
2019-01-29T17:24:49.893Z,2.21
2019-01-29T17:30:45.692Z,2.20
2019-01-29T17:33:53.987Z,2.23
2019-01-29T17:36:22.360Z,2.29
2019-01-29T17:39:09.999Z,2.31
2019-01-29T17:41:38.369Z,2.34
2019-01-29T17:44:46.668Z,2.26
2019-01-29T17:47:34.296Z,2.26
2019-01-29T17:50:02.678Z,2.11
2019-01-29T17:52:31.059Z,2.08
2019-01-29T17:54:59.452Z,1.92
2019-01-29T17:57:27.834Z,2.02
2019-01-29T17:59:56.214Z,1.87
2019-01-29T18:02:24.617Z,1.85
2019-01-29T18:04:53.004Z,1.87
2019-01-29T18:07:21.422Z,1.84
2019-01-29T18:09:49.807Z,1.88
2019-01-29T18:12:18.288Z,1.59
2019-01-29T18:14:46.670Z,1.58
2019-01-29T18:17:15.044Z,1.55
2019-01-29T18:19:43.422Z,1.41
2019-01-29T18:22:11.796Z,1.28
2019-01-29T18:24:40.179Z,1.47
2019-01-29T18:27:08.563Z,1.48
2019-01-29T18:29:36.951Z,1.41
2019-01-29T18:32:05.435Z,1.46
2019-01-29T18:34:33.799Z,1.45
2019-01-29T18:37:02.277Z,1.37
2019-01-29T18:39:30.659Z,1.41
2019-01-29T18:41:59.067Z,1.52
2019-01-29T18:44:27.467Z,1.45
2019-01-29T18:46:55.848Z,1.36
2019-01-29T18:49:24.223Z,1.38
2019-01-29T18:51:52.595Z,1.36
2019-01-29T18:54:44.494Z,1.20
2019-01-29T18:57:32.223Z,1.22
2019-01-29T19:02:54.192Z,1.09
2019-01-29T19:06:02.494Z,1.04
2019-01-29T19:08:50.161Z,0.95
2019-01-29T19:11:37.789Z,1.00
2019-01-29T19:14:06.175Z,1.01
2019-01-29T19:16:53.663Z,0.94
2019-01-29T19:19:22.052Z,1.01
2019-01-29T19:21:50.428Z,1.02
2019-01-29T19:24:18.813Z,0.88
2019-01-29T19:26:47.245Z,0.95
2019-01-29T19:29:15.619Z,1.03
2019-01-29T19:31:44.007Z,1.14
2019-01-29T19:34:12.379Z,1.35
2019-01-29T19:36:40.770Z,1.29
2019-01-29T19:39:09.414Z,1.35
2019-01-29T19:41:37.865Z,1.42
2019-01-29T19:44:06.566Z,1.45
2019-01-29T19:46:35.156Z,1.45
2019-01-29T19:49:03.784Z,1.43
2019-01-29T19:51:32.402Z,1.44
2019-01-29T19:54:00.859Z,1.36
2019-01-29T19:56:29.239Z,1.29
2019-01-29T19:58:57.619Z,1.25
2019-01-29T20:01:26.007Z,1.32
2019-01-29T20:03:54.584Z,1.17
2019-01-29T20:06:23.196Z,1.20
2019-01-29T20:08:51.737Z,1.32
2019-01-29T20:11:20.208Z,1.17
2019-01-29T20:13:48.558Z,1.28
2019-01-29T20:16:16.943Z,1.25
2019-01-29T20:18:45.347Z,1.28
2019-01-29T20:21:13.733Z,1.27
2019-01-29T20:23:42.208Z,1.30
2019-01-29T20:26:10.671Z,1.21
2019-01-29T20:28:42.540Z,1.10
2019-01-29T20:31:09.181Z,1.18
2019-01-29T20:33:37.554Z,1.16
2019-01-29T20:36:05.947Z,1.11
2019-01-29T20:38:35.272Z,1.07
2019-01-29T20:41:03.791Z,1.16
2019-01-29T20:43:32.503Z,1.25
2019-01-29T20:46:00.884Z,1.33
2019-01-29T20:48:29.272Z,1.24
2019-01-29T20:50:57.657Z,1.23
2019-01-29T20:53:26.129Z,1.15
2019-01-29T20:55:54.515Z,1.17
2019-01-29T20:58:22.886Z,1.16
2019-01-29T21:00:51.267Z,1.16
2019-01-29T21:03:19.649Z,0.99
2019-01-29T21:05:48.335Z,1.11
2019-01-29T21:08:16.898Z,1.18
2019-01-29T21:10:45.271Z,1.19
2019-01-29T21:13:13.653Z,1.23
2019-01-29T21:15:42.090Z,1.15
2019-01-29T21:18:10.477Z,1.00
2019-01-29T21:20:38.850Z,0.84
2019-01-29T21:23:07.240Z,0.82
2019-01-29T21:25:35.607Z,0.78
2019-01-29T21:28:04.272Z,0.75
2019-01-29T21:30:34.989Z,0.76
2019-01-29T21:33:03.363Z,0.64
2019-01-29T21:35:31.840Z,0.68
2019-01-29T21:38:00.217Z,0.67
2019-01-29T21:40:28.677Z,0.77
2019-01-29T21:42:57.060Z,0.66
2019-01-29T21:45:25.435Z,0.68
2019-01-29T21:47:56.252Z,0.62
2019-01-29T21:50:26.818Z,0.57
2019-01-29T21:52:55.284Z,0.64
2019-01-29T21:55:23.645Z,0.63
2019-01-29T21:57:52.031Z,0.69
2019-01-29T22:00:35.226Z,0.71
2019-01-29T22:03:04.250Z,0.66
2019-01-29T22:05:32.635Z,0.71
2019-01-29T22:08:01.054Z,0.78
2019-01-29T22:10:29.452Z,0.85
2019-01-29T22:12:57.908Z,0.89
2019-01-29T22:15:26.456Z,0.89
2019-01-29T22:17:54.840Z,0.93
2019-01-29T22:20:24.451Z,0.90
2019-01-29T22:22:53.266Z,0.93
2019-01-29T22:25:23.022Z,0.93
2019-01-29T22:27:51.403Z,0.94
2019-01-29T22:30:27.997Z,0.77
2019-01-29T22:32:56.428Z,0.68
2019-01-29T22:35:24.936Z,0.76
2019-01-29T22:37:53.348Z,0.74
2019-01-29T22:40:24.312Z,0.68
2019-01-29T22:42:52.767Z,0.71
2019-01-29T22:45:21.208Z,0.71
2019-01-29T22:47:49.606Z,0.80
2019-01-29T22:50:26.719Z,0.67
2019-01-29T22:52:55.108Z,0.61
2019-01-29T22:55:23.574Z,0.53
2019-01-29T22:57:52.040Z,0.48
2019-01-29T23:00:51.935Z,0.56
2019-01-29T23:03:26.046Z,0.50
2019-01-29T23:06:02.785Z,0.57
2019-01-29T23:08:31.165Z,0.52
2019-01-29T23:11:01.111Z,0.57
2019-01-29T23:13:29.491Z,0.49
2019-01-29T23:15:57.869Z,0.49
2019-01-29T23:18:26.507Z,0.45
2019-01-29T23:20:54.881Z,0.45
2019-01-29T23:23:23.264Z,0.49
2019-01-29T23:25:51.633Z,0.48
2019-01-29T23:28:20.107Z,0.50
2019-01-29T23:30:48.487Z,0.40
2019-01-29T23:33:16.859Z,0.38
2019-01-29T23:35:45.248Z,0.43
2019-01-29T23:38:13.623Z,0.48
2019-01-29T23:40:42.017Z,0.39
2019-01-29T23:43:12.440Z,0.25
2019-01-29T23:45:40.501Z,0.14
2019-01-29T23:48:08.948Z,0.17
2019-01-29T23:50:37.351Z,0.33
2019-01-29T23:53:05.717Z,0.37
2019-01-29T23:55:34.101Z,0.26
2019-01-29T23:58:02.489Z,0.32
